sensor_id;sensor_type;location;lat;lon;timestamp;pressure;altitude;pressure_sealevel;temperature;humidity
42591;BME280;28218;53.342;-6.216;2023-02-12T00:01:07;103618.00;;;10.58;100.00
42591;BME280;28218;53.342;-6.216;2023-02-12T00:03:36;103616.44;;;10.55;100.00
42591;BME280;28218;53.342;-6.216;2023-02-12T00:06:05;103613.69;;;10.57;100.00
42591;BME280;28218;53.342;-6.216;2023-02-12T00:08:36;103612.84;;;10.56;100.00
42591;BME280;28218;53.342;-6.216;2023-02-12T00:11:10;103611.16;;;10.55;100.00
42591;BME280;28218;53.342;-6.216;2023-02-12T00:13:38;103611.16;;;10.55;100.00
42591;BME280;28218;53.342;-6.216;2023-02-12T00:16:08;103616.50;;;10.54;100.00
42591;BME280;28218;53.342;-6.216;2023-02-12T00:18:36;103619.91;;;10.56;100.00
42591;BME280;28218;53.342;-6.216;2023-02-12T00:21:05;103612.09;;;10.54;100.00
42591;BME280;28218;53.342;-6.216;2023-02-12T00:23:37;103608.59;;;10.54;100.00
42591;BME280;28218;53.342;-6.216;2023-02-12T00:26:07;103613.03;;;10.53;100.00
42591;BME280;28218;53.342;-6.216;2023-02-12T00:28:36;103599.97;;;10.52;100.00
42591;BME280;28218;53.342;-6.216;2023-02-12T00:31:06;103604.38;;;10.51;100.00
42591;BME280;28218;53.342;-6.216;2023-02-12T00:33:34;103607.13;;;10.49;100.00
42591;BME280;28218;53.342;-6.216;2023-02-12T00:36:04;103606.25;;;10.49;100.00
42591;BME280;28218;53.342;-6.216;2023-02-12T00:38:32;103600.13;;;10.48;100.00
42591;BME280;28218;53.342;-6.216;2023-02-12T00:41:02;103600.13;;;10.48;100.00
42591;BME280;28218;53.342;-6.216;2023-02-12T00:43:30;103591.38;;;10.48;100.00
42591;BME280;28218;53.342;-6.216;2023-02-12T00:45:58;103598.56;;;10.46;100.00
42591;BME280;28218;53.342;-6.216;2023-02-12T00:48:26;103594.13;;;10.46;100.00
42591;BME280;28218;53.342;-6.216;2023-02-12T00:50:55;103597.50;;;10.48;100.00
42591;BME280;28218;53.342;-6.216;2023-02-12T00:53:23;103594.13;;;10.46;100.00
42591;BME280;28218;53.342;-6.216;2023-02-12T00:55:52;103583.69;;;10.45;100.00
42591;BME280;28218;53.342;-6.216;2023-02-12T00:58:22;103590.66;;;10.46;100.00
42591;BME280;28218;53.342;-6.216;2023-02-12T01:00:50;103599.41;;;10.46;100.00
42591;BME280;28218;53.342;-6.216;2023-02-12T01:03:19;103587.16;;;10.45;100.00
42591;BME280;28218;53.342;-6.216;2023-02-12T01:05:48;103595.09;;;10.45;100.00
42591;BME280;28218;53.342;-6.216;2023-02-12T01:08:16;103588.00;;;10.46;100.00
42591;BME280;28218;53.342;-6.216;2023-02-12T01:10:44;103589.59;;;10.48;100.00
42591;BME280;28218;53.342;-6.216;2023-02-12T01:13:13;103590.34;;;10.51;100.00
42591;BME280;28218;53.342;-6.216;2023-02-12T01:15:43;103578.75;;;10.53;100.00
42591;BME280;28218;53.342;-6.216;2023-02-12T01:18:11;103584.03;;;10.53;100.00
42591;BME280;28218;53.342;-6.216;2023-02-12T01:20:41;103582.16;;;10.55;100.00
42591;BME280;28218;53.342;-6.216;2023-02-12T01:23:10;103576.97;;;10.54;100.00
42591;BME280;28218;53.342;-6.216;2023-02-12T01:25:38;103579.59;;;10.54;100.00
42591;BME280;28218;53.342;-6.216;2023-02-12T01:28:06;103576.97;;;10.54;100.00
42591;BME280;28218;53.342;-6.216;2023-02-12T01:30:34;103576.03;;;10.55;100.00
42591;BME280;28218;53.342;-6.216;2023-02-12T01:33:04;103566.34;;;10.55;100.00
42591;BME280;28218;53.342;-6.216;2023-02-12T01:35:32;103573.41;;;10.55;100.00
42591;BME280;28218;53.342;-6.216;2023-02-12T01:38:00;103574.31;;;10.54;100.00
42591;BME280;28218;53.342;-6.216;2023-02-12T01:40:28;103569.81;;;10.56;100.00
42591;BME280;28218;53.342;-6.216;2023-02-12T01:43:00;103568.97;;;10.55;100.00
42591;BME280;28218;53.342;-6.216;2023-02-12T01:45:45;103562.09;;;10.53;100.00
42591;BME280;28218;53.342;-6.216;2023-02-12T01:48:16;103570.84;;;10.53;100.00
42591;BME280;28218;53.342;-6.216;2023-02-12T01:50:46;103568.31;;;10.52;100.00
42591;BME280;28218;53.342;-6.216;2023-02-12T01:53:17;103563.03;;;10.52;100.00
42591;BME280;28218;53.342;-6.216;2023-02-12T01:55:48;103558.81;;;10.49;100.00
42591;BME280;28218;53.342;-6.216;2023-02-12T01:58:18;103551.84;;;10.48;100.00
42591;BME280;28218;53.342;-6.216;2023-02-12T02:00:46;103547.53;;;10.47;100.00
42591;BME280;28218;53.342;-6.216;2023-02-12T02:03:16;103552.91;;;10.45;100.00
42591;BME280;28218;53.342;-6.216;2023-02-12T02:05:51;103554.78;;;10.43;100.00
42591;BME280;28218;53.342;-6.216;2023-02-12T02:08:22;103543.19;;;10.46;100.00
42591;BME280;28218;53.342;-6.216;2023-02-12T02:10:50;103545.00;;;10.45;100.00
42591;BME280;28218;53.342;-6.216;2023-02-12T02:13:19;103548.59;;;10.44;100.00
42591;BME280;28218;53.342;-6.216;2023-02-12T02:16:11;103540.66;;;10.44;100.00
42591;BME280;28218;53.342;-6.216;2023-02-12T02:18:47;103538.22;;;10.41;100.00
42591;BME280;28218;53.342;-6.216;2023-02-12T02:24:30;103527.97;;;10.37;100.00
42591;BME280;28218;53.342;-6.216;2023-02-12T02:27:13;103530.13;;;10.30;100.00
42591;BME280;28218;53.342;-6.216;2023-02-12T02:32:48;103533.16;;;10.24;100.00
42591;BME280;28218;53.342;-6.216;2023-02-12T02:35:25;103525.53;;;10.19;100.00
42591;BME280;28218;53.342;-6.216;2023-02-12T02:38:02;103532.59;;;10.19;100.00
42591;BME280;28218;53.342;-6.216;2023-02-12T02:40:39;103530.13;;;10.16;100.00
42591;BME280;28218;53.342;-6.216;2023-02-12T02:43:14;103530.34;;;10.13;100.00
42591;BME280;28218;53.342;-6.216;2023-02-12T02:45:46;103525.16;;;10.11;100.00
42591;BME280;28218;53.342;-6.216;2023-02-12T02:48:18;103535.63;;;10.13;100.00
42591;BME280;28218;53.342;-6.216;2023-02-12T02:50:51;103538.25;;;10.13;100.00
42591;BME280;28218;53.342;-6.216;2023-02-12T02:53:27;103538.25;;;10.13;100.00
42591;BME280;28218;53.342;-6.216;2023-02-12T02:55:59;103537.19;;;10.15;100.00
42591;BME280;28218;53.342;-6.216;2023-02-12T02:58:31;103537.13;;;10.17;100.00
42591;BME280;28218;53.342;-6.216;2023-02-12T03:01:05;103543.22;;;10.17;100.00
42591;BME280;28218;53.342;-6.216;2023-02-12T03:03:39;103541.63;;;10.15;100.00
42591;BME280;28218;53.342;-6.216;2023-02-12T03:06:12;103538.13;;;10.14;100.00
42591;BME280;28218;53.342;-6.216;2023-02-12T03:08:48;103542.56;;;10.14;100.00
42591;BME280;28218;53.342;-6.216;2023-02-12T03:11:21;103534.78;;;10.12;100.00
42591;BME280;28218;53.342;-6.216;2023-02-12T03:13:56;103528.56;;;10.13;100.00
42591;BME280;28218;53.342;-6.216;2023-02-12T03:16:27;103533.72;;;10.15;100.00
42591;BME280;28218;53.342;-6.216;2023-02-12T03:19:04;103532.97;;;10.13;100.00
42591;BME280;28218;53.342;-6.216;2023-02-12T03:21:39;103527.78;;;10.11;100.00
42591;BME280;28218;53.342;-6.216;2023-02-12T03:24:11;103532.88;;;10.14;100.00
42591;BME280;28218;53.342;-6.216;2023-02-12T03:26:45;103524.22;;;10.12;100.00
42591;BME280;28218;53.342;-6.216;2023-02-12T03:29:14;103529.41;;;10.14;100.00
42591;BME280;28218;53.342;-6.216;2023-02-12T03:31:52;103524.88;;;10.16;100.00
42591;BME280;28218;53.342;-6.216;2023-02-12T03:34:30;103517.91;;;10.15;100.00
42591;BME280;28218;53.342;-6.216;2023-02-12T03:37:04;103523.84;;;10.18;100.00
42591;BME280;28218;53.342;-6.216;2023-02-12T03:39:41;103519.41;;;10.19;100.00
42591;BME280;28218;53.342;-6.216;2023-02-12T03:42:16;103529.09;;;10.18;100.00
42591;BME280;28218;53.342;-6.216;2023-02-12T03:44:51;103515.09;;;10.18;100.00
42591;BME280;28218;53.342;-6.216;2023-02-12T03:47:23;103523.00;;;10.18;100.00
42591;BME280;28218;53.342;-6.216;2023-02-12T03:49:59;103513.41;;;10.17;100.00
42591;BME280;28218;53.342;-6.216;2023-02-12T03:52:29;103509.28;;;10.13;100.00
42591;BME280;28218;53.342;-6.216;2023-02-12T03:54:58;103502.22;;;10.13;100.00
42591;BME280;28218;53.342;-6.216;2023-02-12T03:57:29;103504.84;;;10.13;100.00
42591;BME280;28218;53.342;-6.216;2023-02-12T04:00:03;103509.28;;;10.13;100.00
42591;BME280;28218;53.342;-6.216;2023-02-12T04:02:32;103500.81;;;10.08;100.00
42591;BME280;28218;53.342;-6.216;2023-02-12T04:05:05;103501.44;;;10.11;100.00
42591;BME280;28218;53.342;-6.216;2023-02-12T04:07:34;103499.88;;;10.09;100.00
42591;BME280;28218;53.342;-6.216;2023-02-12T04:10:04;103498.91;;;10.10;100.00
42591;BME280;28218;53.342;-6.216;2023-02-12T04:12:39;103505.97;;;10.09;100.00
42591;BME280;28218;53.342;-6.216;2023-02-12T04:15:19;103506.81;;;10.10;100.00
42591;BME280;28218;53.342;-6.216;2023-02-12T04:17:57;103505.88;;;10.11;100.00
42591;BME280;28218;53.342;-6.216;2023-02-12T04:20:35;103500.72;;;10.09;100.00
42591;BME280;28218;53.342;-6.216;2023-02-12T04:23:14;103501.66;;;10.08;100.00
42591;BME280;28218;53.342;-6.216;2023-02-12T04:25:52;103491.84;;;10.10;100.00
42591;BME280;28218;53.342;-6.216;2023-02-12T04:28:34;103493.66;;;10.10;100.00
42591;BME280;28218;53.342;-6.216;2023-02-12T04:31:06;103495.44;;;10.09;100.00
42591;BME280;28218;53.342;-6.216;2023-02-12T04:33:43;103498.06;;;10.09;100.00
42591;BME280;28218;53.342;-6.216;2023-02-12T04:36:16;103498.91;;;10.10;100.00
42591;BME280;28218;53.342;-6.216;2023-02-12T04:38:50;103498.19;;;10.08;100.00
42591;BME280;28218;53.342;-6.216;2023-02-12T04:41:21;103499.09;;;10.07;100.00
42591;BME280;28218;53.342;-6.216;2023-02-12T04:43:49;103501.00;;;10.05;100.00
42591;BME280;28218;53.342;-6.216;2023-02-12T04:46:17;103499.09;;;10.07;100.00
42591;BME280;28218;53.342;-6.216;2023-02-12T04:48:51;103505.25;;;10.07;100.00
42591;BME280;28218;53.342;-6.216;2023-02-12T04:51:21;103505.97;;;10.09;100.00
42591;BME280;28218;53.342;-6.216;2023-02-12T04:53:49;103513.03;;;10.09;100.00
42591;BME280;28218;53.342;-6.216;2023-02-12T04:56:18;103514.72;;;10.10;100.00
42591;BME280;28218;53.342;-6.216;2023-02-12T04:58:46;103511.44;;;10.06;100.00
42591;BME280;28218;53.342;-6.216;2023-02-12T05:01:15;103516.63;;;10.08;100.00
42591;BME280;28218;53.342;-6.216;2023-02-12T05:03:43;103517.25;;;10.11;100.00
42591;BME280;28218;53.342;-6.216;2023-02-12T05:06:11;103513.78;;;10.11;100.00
42591;BME280;28218;53.342;-6.216;2023-02-12T05:08:41;103519.81;;;10.13;100.00
42591;BME280;28218;53.342;-6.216;2023-02-12T05:11:10;103524.13;;;10.14;100.00
42591;BME280;28218;53.342;-6.216;2023-02-12T05:13:38;103516.41;;;10.11;100.00
42591;BME280;28218;53.342;-6.216;2023-02-12T05:16:07;103515.56;;;10.10;100.00
42591;BME280;28218;53.342;-6.216;2023-02-12T05:18:35;103512.84;;;10.12;100.00
42591;BME280;28218;53.342;-6.216;2023-02-12T05:21:04;103512.09;;;10.10;100.00
42591;BME280;28218;53.342;-6.216;2023-02-12T05:23:34;103516.41;;;10.11;100.00
42591;BME280;28218;53.342;-6.216;2023-02-12T05:26:06;103526.09;;;10.10;100.00
42591;BME280;28218;53.342;-6.216;2023-02-12T05:28:35;103520.94;;;10.09;100.00
42591;BME280;28218;53.342;-6.216;2023-02-12T05:31:05;103519.16;;;10.09;100.00
42591;BME280;28218;53.342;-6.216;2023-02-12T05:33:34;103523.56;;;10.09;100.00
42591;BME280;28218;53.342;-6.216;2023-02-12T05:36:03;103513.22;;;10.06;100.00
42591;BME280;28218;53.342;-6.216;2023-02-12T05:38:32;103513.22;;;10.06;100.00
42591;BME280;28218;53.342;-6.216;2023-02-12T05:41:02;103519.31;;;10.06;100.00
42591;BME280;28218;53.342;-6.216;2023-02-12T05:43:32;103507.09;;;10.05;100.00
42591;BME280;28218;53.342;-6.216;2023-02-12T05:46:01;103503.63;;;10.05;100.00
42591;BME280;28218;53.342;-6.216;2023-02-12T05:48:30;103507.94;;;10.06;100.00
42591;BME280;28218;53.342;-6.216;2023-02-12T05:51:01;103508.78;;;10.06;100.00
42591;BME280;28218;53.342;-6.216;2023-02-12T05:53:29;103510.50;;;10.07;100.00
42591;BME280;28218;53.342;-6.216;2023-02-12T05:56:08;103508.72;;;10.08;100.00
42591;BME280;28218;53.342;-6.216;2023-02-12T05:58:39;103502.50;;;10.09;100.00
42591;BME280;28218;53.342;-6.216;2023-02-12T06:01:10;103507.88;;;10.07;100.00
42591;BME280;28218;53.342;-6.216;2023-02-12T06:03:38;103509.63;;;10.07;100.00
42591;BME280;28218;53.342;-6.216;2023-02-12T06:06:07;103503.53;;;10.06;100.00
42591;BME280;28218;53.342;-6.216;2023-02-12T06:08:36;103505.25;;;10.07;100.00
42591;BME280;28218;53.342;-6.216;2023-02-12T06:11:05;103503.44;;;10.08;100.00
42591;BME280;28218;53.342;-6.216;2023-02-12T06:13:34;103502.50;;;10.09;100.00
42591;BME280;28218;53.342;-6.216;2023-02-12T06:16:05;103498.91;;;10.10;100.00
42591;BME280;28218;53.342;-6.216;2023-02-12T06:18:34;103502.59;;;10.07;100.00
42591;BME280;28218;53.342;-6.216;2023-02-12T06:21:02;103504.28;;;10.08;100.00
42591;BME280;28218;53.342;-6.216;2023-02-12T06:23:30;103505.31;;;10.06;100.00
42591;BME280;28218;53.342;-6.216;2023-02-12T06:25:59;103496.56;;;10.05;100.00
42591;BME280;28218;53.342;-6.216;2023-02-12T06:28:27;103492.16;;;10.06;100.00
42591;BME280;28218;53.342;-6.216;2023-02-12T06:30:55;103491.31;;;10.05;100.00
42591;BME280;28218;53.342;-6.216;2023-02-12T06:33:25;103492.16;;;10.06;100.00
42591;BME280;28218;53.342;-6.216;2023-02-12T06:35:54;103487.72;;;10.06;100.00
42591;BME280;28218;53.342;-6.216;2023-02-12T06:38:23;103482.38;;;10.08;100.00
42591;BME280;28218;53.342;-6.216;2023-02-12T06:40:51;103484.25;;;10.06;100.00
42591;BME280;28218;53.342;-6.216;2023-02-12T06:43:19;103489.50;;;10.06;100.00
42591;BME280;28218;53.342;-6.216;2023-02-12T06:45:47;103485.06;;;10.06;100.00
42591;BME280;28218;53.342;-6.216;2023-02-12T06:48:15;103488.56;;;10.07;100.00
42591;BME280;28218;53.342;-6.216;2023-02-12T06:50:45;103480.75;;;10.05;100.00
42591;BME280;28218;53.342;-6.216;2023-02-12T06:53:13;103486.03;;;10.05;100.00
42591;BME280;28218;53.342;-6.216;2023-02-12T06:55:42;103475.59;;;10.04;100.00
42591;BME280;28218;53.342;-6.216;2023-02-12T06:58:10;103475.59;;;10.04;100.00
42591;BME280;28218;53.342;-6.216;2023-02-12T07:00:38;103477.38;;;10.03;100.00
42591;BME280;28218;53.342;-6.216;2023-02-12T07:03:07;103474.84;;;10.02;100.00
42591;BME280;28218;53.342;-6.216;2023-02-12T07:05:38;103473.16;;;10.01;100.00
42591;BME280;28218;53.342;-6.216;2023-02-12T07:08:08;103474.84;;;10.02;100.00
42591;BME280;28218;53.342;-6.216;2023-02-12T07:10:36;103477.47;;;10.02;100.00
42591;BME280;28218;53.342;-6.216;2023-02-12T07:13:04;103477.47;;;10.02;100.00
42591;BME280;28218;53.342;-6.216;2023-02-12T07:15:32;103484.63;;;9.99;100.00
42591;BME280;28218;53.342;-6.216;2023-02-12T07:18:01;103492.44;;;10.01;100.00
42591;BME280;28218;53.342;-6.216;2023-02-12T07:20:29;103494.16;;;10.02;100.00
42591;BME280;28218;53.342;-6.216;2023-02-12T07:22:57;103483.69;;;10.01;100.00
42591;BME280;28218;53.342;-6.216;2023-02-12T07:25:27;103490.63;;;10.02;100.00
42591;BME280;28218;53.342;-6.216;2023-02-12T07:27:55;103489.78;;;10.01;100.00
42591;BME280;28218;53.342;-6.216;2023-02-12T07:30:23;103487.16;;;10.01;100.00
42591;BME280;28218;53.342;-6.216;2023-02-12T07:32:51;103490.56;;;10.03;100.00
42591;BME280;28218;53.342;-6.216;2023-02-12T07:35:20;103500.16;;;10.04;100.00
42591;BME280;28218;53.342;-6.216;2023-02-12T07:37:48;103496.78;;;10.02;100.00
42591;BME280;28218;53.342;-6.216;2023-02-12T07:40:16;103503.81;;;10.02;100.00
42591;BME280;28218;53.342;-6.216;2023-02-12T07:42:46;103498.53;;;10.02;100.00
42591;BME280;28218;53.342;-6.216;2023-02-12T07:45:20;103505.59;;;10.01;100.00
42591;BME280;28218;53.342;-6.216;2023-02-12T07:47:49;103506.44;;;10.02;100.00
42591;BME280;28218;53.342;-6.216;2023-02-12T07:50:17;103509.06;;;10.02;100.00
42591;BME280;28218;53.342;-6.216;2023-02-12T07:52:47;103506.44;;;10.02;100.00
42591;BME280;28218;53.342;-6.216;2023-02-12T07:55:16;103508.16;;;10.03;100.00
42591;BME280;28218;53.342;-6.216;2023-02-12T07:57:46;103513.44;;;10.03;100.00
42591;BME280;28218;53.342;-6.216;2023-02-12T08:00:15;103508.34;;;9.99;100.00
42591;BME280;28218;53.342;-6.216;2023-02-12T08:02:43;103514.44;;;10.00;100.00
42591;BME280;28218;53.342;-6.216;2023-02-12T08:05:11;103519.63;;;10.02;100.00
42591;BME280;28218;53.342;-6.216;2023-02-12T08:07:39;103521.41;;;10.01;100.00
42591;BME280;28218;53.342;-6.216;2023-02-12T08:10:08;103516.97;;;10.02;100.00
42591;BME280;28218;53.342;-6.216;2023-02-12T08:12:36;103530.16;;;10.02;100.00
42591;BME280;28218;53.342;-6.216;2023-02-12T08:15:07;103530.06;;;10.03;100.00
42591;BME280;28218;53.342;-6.216;2023-02-12T08:17:35;103522.25;;;10.02;100.00
42591;BME280;28218;53.342;-6.216;2023-02-12T08:20:04;103525.75;;;10.02;100.00
42591;BME280;28218;53.342;-6.216;2023-02-12T08:22:32;103529.13;;;10.04;100.00
42591;BME280;28218;53.342;-6.216;2023-02-12T08:25:00;103532.59;;;10.05;100.00
42591;BME280;28218;53.342;-6.216;2023-02-12T08:27:29;103522.81;;;10.07;100.00
42591;BME280;28218;53.342;-6.216;2023-02-12T08:29:57;103521.13;;;10.06;100.00
42591;BME280;28218;53.342;-6.216;2023-02-12T08:32:26;103527.16;;;10.08;100.00
42591;BME280;28218;53.342;-6.216;2023-02-12T08:34:56;103531.47;;;10.09;100.00
42591;BME280;28218;53.342;-6.216;2023-02-12T08:37:24;103527.91;;;10.10;100.00
42591;BME280;28218;53.342;-6.216;2023-02-12T08:39:53;103534.00;;;10.10;100.00
42591;BME280;28218;53.342;-6.216;2023-02-12T08:42:21;103532.22;;;10.11;100.00
42591;BME280;28218;53.342;-6.216;2023-02-12T08:44:51;103538.25;;;10.13;100.00
42591;BME280;28218;53.342;-6.216;2023-02-12T08:47:19;103534.84;;;10.11;100.00
42591;BME280;28218;53.342;-6.216;2023-02-12T08:49:49;103540.88;;;10.13;100.00
42591;BME280;28218;53.342;-6.216;2023-02-12T08:52:17;103525.91;;;10.13;100.00
42591;BME280;28218;53.342;-6.216;2023-02-12T08:54:45;103520.53;;;10.15;100.00
42591;BME280;28218;53.342;-6.216;2023-02-12T08:57:13;103522.16;;;10.17;100.00
42591;BME280;28218;53.342;-6.216;2023-02-12T08:59:41;103529.09;;;10.18;100.00
42591;BME280;28218;53.342;-6.216;2023-02-12T09:02:10;103521.94;;;10.20;100.00
42591;BME280;28218;53.342;-6.216;2023-02-12T09:04:38;103521.88;;;10.22;100.00
42591;BME280;28218;53.342;-6.216;2023-02-12T09:07:08;103516.47;;;10.23;100.00
42591;BME280;28218;53.342;-6.216;2023-02-12T09:09:36;103520.75;;;10.26;100.00
42591;BME280;28218;53.342;-6.216;2023-02-12T09:12:04;103522.44;;;10.27;100.00
42591;BME280;28218;53.342;-6.216;2023-02-12T09:14:33;103523.19;;;10.29;100.00
42591;BME280;28218;53.342;-6.216;2023-02-12T09:17:01;103522.16;;;10.32;100.00
42591;BME280;28218;53.342;-6.216;2023-02-12T09:19:29;103518.56;;;10.33;100.00
42591;BME280;28218;53.342;-6.216;2023-02-12T09:21:57;103520.06;;;10.37;100.00
42591;BME280;28218;53.342;-6.216;2023-02-12T09:24:27;103515.53;;;10.39;100.00
42591;BME280;28218;53.342;-6.216;2023-02-12T09:26:55;103514.50;;;10.41;100.00
42591;BME280;28218;53.342;-6.216;2023-02-12T09:29:23;103509.97;;;10.43;100.00
42591;BME280;28218;53.342;-6.216;2023-02-12T09:31:51;103509.97;;;10.43;100.00
42591;BME280;28218;53.342;-6.216;2023-02-12T09:34:20;103498.28;;;10.47;100.00
42591;BME280;28218;53.342;-6.216;2023-02-12T09:36:48;103505.88;;;10.52;100.00
42591;BME280;28218;53.342;-6.216;2023-02-12T09:39:17;103493.47;;;10.54;100.00
42591;BME280;28218;53.342;-6.216;2023-02-12T09:42:14;103488.09;;;10.56;100.00
42591;BME280;28218;53.342;-6.216;2023-02-12T09:44:55;103487.03;;;10.58;100.00
42591;BME280;28218;53.342;-6.216;2023-02-12T09:47:31;103492.22;;;10.60;100.00
42591;BME280;28218;53.342;-6.216;2023-02-12T09:50:16;103480.81;;;10.59;100.00
42591;BME280;28218;53.342;-6.216;2023-02-12T09:52:48;103479.56;;;10.65;100.00
42591;BME280;28218;53.342;-6.216;2023-02-12T09:55:18;103481.91;;;10.69;100.00
42591;BME280;28218;53.342;-6.216;2023-02-12T09:57:48;103466.16;;;10.68;100.00
42591;BME280;28218;53.342;-6.216;2023-02-12T10:00:25;103469.56;;;10.70;100.00
42591;BME280;28218;53.342;-6.216;2023-02-12T10:03:00;103477.66;;;10.67;100.00
42591;BME280;28218;53.342;-6.216;2023-02-12T10:05:35;103465.03;;;10.72;100.00
42591;BME280;28218;53.342;-6.216;2023-02-12T10:11:00;103474.34;;;10.78;100.00
42591;BME280;28218;53.342;-6.216;2023-02-12T10:13:44;103473.28;;;10.80;100.00
42591;BME280;28218;53.342;-6.216;2023-02-12T10:16:36;103476.88;;;10.79;100.00
42591;BME280;28218;53.342;-6.216;2023-02-12T10:19:18;103479.72;;;10.89;100.00
42591;BME280;28218;53.342;-6.216;2023-02-12T10:21:56;103477.75;;;10.92;100.00
42591;BME280;28218;53.342;-6.216;2023-02-12T10:24:47;103473.06;;;10.96;100.00
42591;BME280;28218;53.342;-6.216;2023-02-12T10:27:26;103475.41;;;11.00;100.00
42591;BME280;28218;53.342;-6.216;2023-02-12T10:30:13;103474.56;;;10.87;100.00
42591;BME280;28218;53.342;-6.216;2023-02-12T10:32:44;103477.81;;;10.91;100.00
42591;BME280;28218;53.342;-6.216;2023-02-12T10:35:14;103478.59;;;10.93;100.00
42591;BME280;28218;53.342;-6.216;2023-02-12T10:37:47;103483.63;;;10.96;100.00
42591;BME280;28218;53.342;-6.216;2023-02-12T10:40:19;103485.34;;;10.97;100.00
42591;BME280;28218;53.342;-6.216;2023-02-12T10:42:50;103480.50;;;11.04;100.00
42591;BME280;28218;53.342;-6.216;2023-02-12T10:45:24;103483.97;;;11.04;100.00
42591;BME280;28218;53.342;-6.216;2023-02-12T10:48:03;103480.50;;;11.04;100.00
42591;BME280;28218;53.342;-6.216;2023-02-12T10:50:39;103477.84;;;11.04;100.00
42591;BME280;28218;53.342;-6.216;2023-02-12T10:53:15;103479.53;;;11.05;100.00
42591;BME280;28218;53.342;-6.216;2023-02-12T10:55:45;103475.00;;;11.07;100.00
42591;BME280;28218;53.342;-6.216;2023-02-12T10:58:18;103472.47;;;11.05;100.00
42591;BME280;28218;53.342;-6.216;2023-02-12T11:00:56;103478.25;;;11.10;100.00
42591;BME280;28218;53.342;-6.216;2023-02-12T11:03:28;103475.53;;;11.12;100.00
42591;BME280;28218;53.342;-6.216;2023-02-12T11:06:11;103475.63;;;11.10;100.00
42591;BME280;28218;53.342;-6.216;2023-02-12T11:08:40;103469.81;;;11.05;100.00
42591;BME280;28218;53.342;-6.216;2023-02-12T11:11:10;103476.59;;;11.09;100.00
42591;BME280;28218;53.342;-6.216;2023-02-12T11:13:43;103464.22;;;11.10;100.00
42591;BME280;28218;53.342;-6.216;2023-02-12T11:16:26;103473.84;;;11.11;100.00
42591;BME280;28218;53.342;-6.216;2023-02-12T11:18:59;103476.28;;;11.14;100.00
42591;BME280;28218;53.342;-6.216;2023-02-12T11:21:28;103470.78;;;11.17;100.00
42591;BME280;28218;53.342;-6.216;2023-02-12T11:23:56;103479.66;;;11.16;100.00
42591;BME280;28218;53.342;-6.216;2023-02-12T11:26:26;103468.28;;;11.15;100.00
42591;BME280;28218;53.342;-6.216;2023-02-12T11:28:57;103463.84;;;11.16;100.00
42591;BME280;28218;53.342;-6.216;2023-02-12T11:31:29;103464.75;;;11.15;100.00
42591;BME280;28218;53.342;-6.216;2023-02-12T11:34:11;103454.09;;;11.04;100.00
42591;BME280;28218;53.342;-6.216;2023-02-12T11:36:42;103451.97;;;10.96;100.00
42591;BME280;28218;53.342;-6.216;2023-02-12T11:39:20;103456.41;;;10.95;100.00
42591;BME280;28218;53.342;-6.216;2023-02-12T11:41:52;103451.13;;;10.95;100.00
42591;BME280;28218;53.342;-6.216;2023-02-12T11:44:24;103442.50;;;10.93;100.00
42591;BME280;28218;53.342;-6.216;2023-02-12T11:46:56;103446.69;;;10.96;100.00
42591;BME280;28218;53.342;-6.216;2023-02-12T11:49:30;103448.19;;;11.00;100.00
42591;BME280;28218;53.342;-6.216;2023-02-12T11:52:01;103443.22;;;10.95;100.00
42591;BME280;28218;53.342;-6.216;2023-02-12T11:54:33;103445.22;;;11.05;100.00
42591;BME280;28218;53.342;-6.216;2023-02-12T11:57:04;103428.88;;;11.12;100.00
42591;BME280;28218;53.342;-6.216;2023-02-12T11:59:34;103432.38;;;11.13;100.00
42591;BME280;28218;53.342;-6.216;2023-02-12T12:02:15;103436.38;;;11.18;100.00
42591;BME280;28218;53.342;-6.216;2023-02-12T12:04:48;103430.25;;;11.18;100.00
42591;BME280;28218;53.342;-6.216;2023-02-12T12:07:22;103429.53;;;11.16;100.00
42591;BME280;28218;53.342;-6.216;2023-02-12T12:09:55;103423.19;;;11.18;100.00
42591;BME280;28218;53.342;-6.216;2023-02-12T12:12:31;103421.50;;;11.17;100.00
42591;BME280;28218;53.342;-6.216;2023-02-12T12:15:05;103411.91;;;11.16;100.00
42591;BME280;28218;53.342;-6.216;2023-02-12T12:18:03;103401.97;;;11.07;100.00
42591;BME280;28218;53.342;-6.216;2023-02-12T12:20:55;103406.94;;;11.12;100.00
42591;BME280;28218;53.342;-6.216;2023-02-12T12:23:31;103388.91;;;11.06;100.00
42591;BME280;28218;53.342;-6.216;2023-02-12T12:26:06;103384.66;;;11.03;100.00
42591;BME280;28218;53.342;-6.216;2023-02-12T12:28:40;103378.97;;;10.96;100.00
42591;BME280;28218;53.342;-6.216;2023-02-12T12:31:13;103372.09;;;10.94;100.00
42591;BME280;28218;53.342;-6.216;2023-02-12T12:33:48;103376.09;;;10.99;100.00
42591;BME280;28218;53.342;-6.216;2023-02-12T12:39:26;103370.09;;;10.97;100.00
42591;BME280;28218;53.342;-6.216;2023-02-12T12:42:27;103361.66;;;10.92;100.00
42591;BME280;28218;53.342;-6.216;2023-02-12T12:45:08;103363.34;;;10.93;100.00
42591;BME280;28218;53.342;-6.216;2023-02-12T12:47:52;103356.91;;;10.97;100.00
42591;BME280;28218;53.342;-6.216;2023-02-12T12:50:40;103340.56;;;10.92;100.00
42591;BME280;28218;53.342;-6.216;2023-02-12T12:53:23;103357.00;;;10.96;100.00
42591;BME280;28218;53.342;-6.216;2023-02-12T12:56:19;103357.22;;;11.06;100.00
42591;BME280;28218;53.342;-6.216;2023-02-12T12:59:04;103347.09;;;11.12;100.00
42591;BME280;28218;53.342;-6.216;2023-02-12T13:01:56;103350.63;;;11.24;100.00
42591;BME280;28218;53.342;-6.216;2023-02-12T13:07:29;103343.97;;;11.44;100.00
42591;BME280;28218;53.342;-6.216;2023-02-12T13:10:20;103342.16;;;11.44;100.00